Time;durP1;ratioP1;P1;durP2;ratioP2;P2;SDS_P1;SDS_P2;PMS_P1;PMS_P2;Temp;Humidity;BMP_temperature;BMP_pressure;BME280_temperature;BME280_humidity;BME280_pressure;Samples;Min_cycle;Max_cycle;Signal;HPM_P1;HPM_P2
2021/12/05 00:20:02;;;;;;;28.00;15.48;;;2.10;99.90;;;;;;5083956;28;20505;-55
2021/12/05 00:22:36;;;;;;;26.40;15.73;;;2.20;99.90;;;;;;5084860;28;20048;-58
2021/12/05 00:25:06;;;;;;;27.17;14.77;;;2.30;99.90;;;;;;5083659;28;20101;-58
2021/12/05 00:27:37;;;;;;;27.73;16.25;;;2.30;99.90;;;;;;5084475;28;20043;-56
2021/12/05 00:30:30;;;;;;;27.65;15.23;;;2.40;99.90;;;;;;5066796;28;20515;-57
2021/12/05 00:39:10;;;;;;;30.50;15.80;;;2.40;99.90;;;;;;5093962;28;20052;-58
2021/12/05 00:41:50;;;;;;;32.55;15.32;;;2.50;99.90;;;;;;5093301;28;20139;-55
2021/12/05 00:47:31;;;;;;;27.02;15.25;;;2.30;99.90;;;;;;5093418;28;20077;-57
2021/12/05 00:50:44;;;;;;;26.95;15.02;;;2.30;99.90;;;;;;5093776;28;20036;-57
2021/12/05 01:16:40;;;;;;;20.42;10.85;;;2.40;99.90;;;;;;5074685;28;20048;-58
2021/12/05 01:19:12;;;;;;;8.18;4.60;;;2.50;99.90;;;;;;5075053;28;20570;-55
2021/12/05 01:21:44;;;;;;;2.75;0.90;;;2.50;99.90;;;;;;5074773;28;20040;-55
2021/12/05 01:30:05;;;;;;;0.35;0.30;;;2.80;99.90;;;;;;5074929;28;20036;-56
2021/12/05 01:32:53;;;;;;;1.17;0.50;;;3.10;99.90;;;;;;5074867;28;20044;-57
2021/12/05 01:35:44;;;;;;;1.58;1.05;;;3.00;99.90;;;;;;5074112;28;20048;-57
2021/12/05 01:44:33;;;;;;;2.35;0.90;;;2.90;99.90;;;;;;5092492;28;20044;-57
2021/12/05 02:07:48;;;;;;;1.85;0.30;;;3.00;99.90;;;;;;5074138;28;20047;-57
2021/12/05 02:34:04;;;;;;;1.17;0.40;;;3.00;99.90;;;;;;5046006;28;20455;-56
2021/12/05 02:41:51;;;;;;;0.82;0.15;;;2.90;99.90;;;;;;5069528;28;20052;-57
2021/12/05 02:44:21;;;;;;;1.00;0.30;;;3.00;99.90;;;;;;5083179;28;20055;-57
2021/12/05 02:46:58;;;;;;;0.65;0.30;;;2.90;99.90;;;;;;5073244;28;20503;-56
2021/12/05 02:49:27;;;;;;;0.43;0.17;;;2.90;99.90;;;;;;5091767;28;20032;-56
2021/12/05 02:51:59;;;;;;;0.10;0.10;;;2.90;99.90;;;;;;5091486;28;20044;-57
2021/12/05 02:54:32;;;;;;;1.27;0.20;;;2.90;99.90;;;;;;5073485;28;20051;-56
2021/12/05 02:57:00;;;;;;;0.47;0.20;;;2.90;99.90;;;;;;5071102;28;20525;-58
2021/12/05 03:02:09;;;;;;;0.95;0.30;;;2.90;99.90;;;;;;5073426;28;20054;-57
2021/12/05 03:04:40;;;;;;;0.20;0.20;;;2.90;99.90;;;;;;5073182;28;20047;-57
2021/12/05 03:07:10;;;;;;;2.45;0.10;;;2.90;99.90;;;;;;5072838;28;20513;-56
2021/12/05 03:09:39;;;;;;;0.38;0.10;;;2.80;99.90;;;;;;5091469;28;20501;-56
2021/12/05 03:12:10;;;;;;;0.30;0.20;;;2.80;99.90;;;;;;5073362;28;20068;-56
2021/12/05 03:14:38;;;;;;;0.85;0.30;;;2.80;99.90;;;;;;5073389;28;20044;-57
2021/12/05 03:17:05;;;;;;;3.35;0.30;;;2.70;99.90;;;;;;5072579;28;20046;-55
2021/12/05 03:19:32;;;;;;;0.77;0.10;;;2.70;99.90;;;;;;5073201;28;20040;-56
2021/12/05 03:22:00;;;;;;;0.20;0.20;;;2.60;99.90;;;;;;5073124;28;20112;-56
2021/12/05 03:24:29;;;;;;;1.77;0.32;;;2.60;99.90;;;;;;5091401;28;20040;-56
2021/12/05 03:26:57;;;;;;;0.55;0.20;;;2.60;99.90;;;;;;5087518;22;20512;-56
2021/12/05 03:29:25;;;;;;;1.40;0.30;;;2.60;99.90;;;;;;5080203;28;20044;-51
2021/12/05 03:31:55;;;;;;;5.35;1.00;;;2.50;99.90;;;;;;5089630;28;20386;-56
2021/12/05 03:34:25;;;;;;;2.10;1.13;;;2.50;99.90;;;;;;5089953;28;20489;-55
2021/12/05 03:36:57;;;;;;;2.30;1.40;;;2.60;99.90;;;;;;5082473;28;20714;-54
2021/12/05 03:39:27;;;;;;;3.10;1.60;;;2.60;99.90;;;;;;5069753;28;20518;-54
2021/12/05 03:41:55;;;;;;;4.20;1.33;;;2.60;99.90;;;;;;5069711;28;20068;-55
2021/12/05 03:44:25;;;;;;;3.50;1.70;;;2.50;99.90;;;;;;5070930;28;20051;-55
2021/12/05 03:46:54;;;;;;;3.08;1.38;;;2.60;99.90;;;;;;5072837;28;20048;-56
2021/12/05 03:49:23;;;;;;;3.60;1.30;;;2.60;99.90;;;;;;5074629;28;20123;-55
2021/12/05 03:51:54;;;;;;;2.95;1.35;;;2.50;99.90;;;;;;5073356;28;20152;-54
2021/12/05 03:54:21;;;;;;;2.00;1.30;;;2.60;99.90;;;;;;5073335;28;20095;-55
2021/12/05 03:56:49;;;;;;;2.85;1.55;;;2.50;99.90;;;;;;5072671;28;20090;-53
2021/12/05 03:59:18;;;;;;;5.88;1.55;;;2.40;99.90;;;;;;5073257;28;20058;-56
2021/12/05 04:01:47;;;;;;;2.00;1.17;;;2.30;99.90;;;;;;5073123;28;20048;-56
2021/12/05 04:04:17;;;;;;;1.60;1.00;;;2.30;99.90;;;;;;5074575;28;20390;-55
2021/12/05 04:06:46;;;;;;;2.25;1.30;;;2.30;99.90;;;;;;5072643;28;20044;-54
2021/12/05 04:09:16;;;;;;;2.03;1.20;;;2.30;99.90;;;;;;5072874;28;20062;-55
2021/12/05 04:11:57;;;;;;;2.42;1.42;;;2.20;99.90;;;;;;5073028;28;20094;-55
2021/12/05 04:14:31;;;;;;;1.50;1.00;;;2.20;99.90;;;;;;5072951;28;20051;-55
2021/12/05 04:17:00;;;;;;;2.10;1.15;;;2.20;99.90;;;;;;5072487;28;20051;-56
2021/12/05 04:19:28;;;;;;;5.15;0.90;;;2.20;99.90;;;;;;5072902;28;20048;-55
2021/12/05 04:21:55;;;;;;;;;;;2.20;99.90;;;;;;5074592;28;20072;-53
2021/12/05 04:24:23;;;;;;;0.88;0.68;;;2.30;99.90;;;;;;5072551;28;19924;-55
2021/12/05 04:26:51;;;;;;;1.20;0.63;;;2.30;99.90;;;;;;5072099;28;20432;-54
2021/12/05 04:29:19;;;;;;;7.07;0.90;;;2.30;99.90;;;;;;5072738;28;20093;-56
2021/12/05 04:31:47;;;;;;;2.70;0.63;;;2.30;99.90;;;;;;5072645;28;20046;-55
2021/12/05 04:34:14;;;;;;;1.95;0.68;;;2.20;99.90;;;;;;5072514;28;20086;-55
2021/12/05 04:36:44;;;;;;;1.45;0.75;;;2.20;99.90;;;;;;5073356;28;20059;-56
2021/12/05 04:39:13;;;;;;;1.25;0.80;;;2.20;99.90;;;;;;5072475;28;20047;-55
2021/12/05 04:41:43;;;;;;;2.63;1.30;;;2.20;99.90;;;;;;5072575;28;20514;-56
2021/12/05 04:44:10;;;;;;;3.42;1.42;;;2.10;99.90;;;;;;5072358;28;20036;-55
2021/12/05 04:46:38;;;;;;;3.63;1.40;;;2.10;99.90;;;;;;5071622;28;20045;-55
2021/12/05 04:49:08;;;;;;;1.60;0.98;;;2.20;99.90;;;;;;5072340;28;20533;-55
2021/12/05 04:51:41;;;;;;;2.53;1.30;;;2.10;99.90;;;;;;5073365;28;20102;-55
2021/12/05 04:54:16;;;;;;;3.72;0.90;;;2.10;99.90;;;;;;5072175;28;20052;-56
2021/12/05 04:56:45;;;;;;;1.60;1.02;;;2.10;99.90;;;;;;5071225;28;20071;-55
2021/12/05 04:59:16;;;;;;;4.38;1.00;;;2.10;99.90;;;;;;5072117;28;20055;-56
2021/12/05 05:01:49;;;;;;;2.83;1.20;;;2.10;99.90;;;;;;5072088;28;20048;-56
2021/12/05 05:04:26;;;;;;;2.22;1.30;;;2.00;99.90;;;;;;5073205;28;20503;-55
2021/12/05 05:07:03;;;;;;;2.63;1.35;;;2.00;99.90;;;;;;5072843;28;20044;-54
2021/12/05 05:09:31;;;;;;;2.30;1.20;;;2.00;99.90;;;;;;5073035;28;20049;-54
2021/12/05 05:11:58;;;;;;;2.70;0.98;;;2.00;99.90;;;;;;5073227;28;20068;-53
2021/12/05 05:14:26;;;;;;;1.40;0.82;;;2.00;99.90;;;;;;5073065;28;20051;-55
2021/12/05 05:16:54;;;;;;;1.65;0.70;;;2.10;99.90;;;;;;5072568;28;20055;-55
2021/12/05 05:19:27;;;;;;;2.80;0.80;;;2.10;99.90;;;;;;5072911;28;20127;-55
2021/12/05 05:46:23;;;;;;;1.33;0.90;;;2.30;99.90;;;;;;4993663;28;20066;-55
2021/12/05 05:48:58;;;;;;;1.90;1.15;;;2.20;99.90;;;;;;5050249;28;20145;-55
2021/12/05 05:51:25;;;;;;;1.35;1.02;;;2.10;99.90;;;;;;5072430;28;20052;-56
2021/12/05 05:53:52;;;;;;;4.22;2.30;;;2.10;99.90;;;;;;5072253;28;20128;-55
2021/12/05 05:56:22;;;;;;;6.85;4.38;;;2.10;99.90;;;;;;5071588;28;20094;-56
2021/12/05 05:58:56;;;;;;;5.97;2.58;;;2.10;99.90;;;;;;5072387;28;20052;-55
2021/12/05 06:04:07;;;;;;;0.80;0.57;;;2.10;99.90;;;;;;5072000;28;20044;-57
2021/12/05 06:06:34;;;;;;;0.80;0.70;;;2.00;99.90;;;;;;5070650;28;20051;-52
2021/12/05 06:09:03;;;;;;;3.10;1.25;;;1.90;99.90;;;;;;5070693;28;20064;-54
2021/12/05 06:11:30;;;;;;;1.33;0.57;;;1.90;99.90;;;;;;5072215;28;20393;-53
2021/12/05 06:13:57;;;;;;;2.92;1.10;;;1.90;99.90;;;;;;5071957;28;20102;-57
2021/12/05 06:16:24;;;;;;;3.13;0.80;;;1.90;99.90;;;;;;5071315;28;20076;-57
2021/12/05 06:18:51;;;;;;;4.85;1.10;;;1.80;99.90;;;;;;5071992;28;20049;-55
2021/12/05 06:21:18;;;;;;;5.07;2.20;;;1.80;99.90;;;;;;5071626;28;20541;-55
2021/12/05 06:23:46;;;;;;;2.67;2.08;;;1.90;99.90;;;;;;5071739;28;20044;-54
2021/12/05 06:26:19;;;;;;;;;;;1.90;99.90;;;;;;5071725;28;20490;-55
2021/12/05 06:39:40;;;;;;;4.72;1.20;;;2.00;99.90;;;;;;5071726;28;20051;-55
2021/12/05 06:47:38;;;;;;;4.25;2.03;;;1.80;99.90;;;;;;5071394;28;20136;-56
2021/12/05 06:50:05;;;;;;;6.28;1.95;;;1.80;99.90;;;;;;5071569;28;20044;-57
2021/12/05 06:52:42;;;;;;;1.92;0.98;;;1.80;99.90;;;;;;5071617;28;20045;-53
2021/12/05 06:55:10;;;;;;;2.80;1.73;;;1.90;99.90;;;;;;5071219;28;20051;-54
2021/12/05 06:57:37;;;;;;;3.95;1.50;;;1.90;99.90;;;;;;5070967;28;20049;-57
2021/12/05 07:00:10;;;;;;;5.38;2.00;;;2.00;99.90;;;;;;5071432;28;20498;-54
2021/12/05 07:02:37;;;;;;;8.50;2.58;;;2.00;99.90;;;;;;5071440;28;20124;-54
2021/12/05 07:07:34;;;;;;;9.07;3.13;;;2.00;99.90;;;;;;5071373;28;20037;-55
2021/12/05 07:10:03;;;;;;;5.95;2.95;;;2.10;99.90;;;;;;5071284;28;20037;-55
2021/12/05 07:15:11;;;;;;;9.38;2.83;;;2.20;99.90;;;;;;5071328;28;20067;-57
2021/12/05 07:25:37;;;;;;;10.32;3.63;;;2.30;99.90;;;;;;5074715;28;20131;-56
2021/12/05 07:42:04;;;;;;;9.70;3.78;;;2.40;99.90;;;;;;5074897;28;20055;-56
2021/12/05 07:44:32;;;;;;;5.50;3.03;;;2.50;99.90;;;;;;5075028;28;20048;-56
2021/12/05 07:46:59;;;;;;;4.07;2.05;;;2.40;99.90;;;;;;5074095;28;20055;-56
2021/12/05 07:49:26;;;;;;;3.70;1.20;;;2.40;99.90;;;;;;5074947;28;20453;-56
2021/12/05 07:51:53;;;;;;;2.95;1.45;;;2.30;99.90;;;;;;5074656;28;20091;-56
2021/12/05 07:57:32;;;;;;;;;;;2.10;99.90;;;;;;5029889;28;20139;-56
2021/12/05 08:16:17;;;;;;;5.10;2.92;;;2.20;99.90;;;;;;5053750;28;20422;-56
2021/12/05 08:18:45;;;;;;;11.52;4.25;;;2.20;99.90;;;;;;5054131;28;20557;-56
2021/12/05 08:21:12;;;;;;;17.38;7.93;;;2.20;99.90;;;;;;5053876;28;20103;-57
2021/12/05 08:23:39;;;;;;;;;;;2.30;99.90;;;;;;5054548;28;20122;-57
2021/12/05 08:26:15;;;;;;;29.98;12.98;;;2.30;99.90;;;;;;5053507;28;19928;-56
2021/12/05 08:34:18;;;;;;;11.40;6.10;;;2.40;99.90;;;;;;5053938;28;20037;-55
2021/12/05 09:21:37;;;;;;;11.88;4.30;;;2.80;99.90;;;;;;5073232;28;20099;-56
2021/12/05 10:07:46;;;;;;;4.15;2.38;;;2.40;99.90;;;;;;5170753;27;20035;-46
2021/12/05 10:13:05;;;;;;;6.32;2.15;;;2.50;99.90;;;;;;5171001;27;20042;-47
2021/12/05 10:26:42;;;;;;;5.53;1.30;;;2.50;99.90;;;;;;5169504;27;20053;-49
2021/12/05 10:37:25;;;;;;;5.85;2.05;;;2.20;99.90;;;;;;5166835;27;20125;-51
2021/12/05 10:40:08;;;;;;;5.75;2.70;;;2.30;99.90;;;;;;5170366;27;20047;-50
2021/12/05 10:42:50;;;;;;;9.05;4.20;;;2.30;99.90;;;;;;5170010;27;20113;-51
2021/12/05 10:45:34;;;;;;;16.38;5.18;;;2.20;99.90;;;;;;5169617;27;20030;-48
2021/12/05 10:48:08;;;;;;;25.45;8.32;;;2.20;99.90;;;;;;5169632;27;20122;-48
2021/12/05 10:50:34;;;;;;;33.60;12.82;;;2.10;99.90;;;;;;5169759;27;20042;-49
2021/12/05 10:53:28;;;;;;;32.08;10.18;;;2.30;99.90;;;;;;5169295;27;20117;-48
2021/12/05 10:56:09;;;;;;;10.57;4.20;;;2.30;99.90;;;;;;5169436;27;20049;-50
2021/12/05 10:58:36;;;;;;;10.07;3.10;;;2.40;99.90;;;;;;5162180;27;20126;-48
2021/12/05 11:01:15;;;;;;;20.38;7.93;;;2.50;99.90;;;;;;5155962;27;20426;-48
2021/12/05 11:03:43;;;;;;;5.80;2.17;;;2.60;99.90;;;;;;5156221;27;20099;-50
2021/12/05 11:06:33;;;;;;;6.70;2.13;;;2.60;99.90;;;;;;5155819;27;20046;-51
2021/12/05 11:09:08;;;;;;;6.63;1.63;;;2.60;99.90;;;;;;5156226;27;20079;-49
2021/12/05 11:11:37;;;;;;;7.72;2.15;;;2.60;99.90;;;;;;5156058;27;20514;-49
2021/12/05 11:14:11;;;;;;;4.30;1.95;;;2.60;99.90;;;;;;5155816;27;20430;-50
2021/12/05 11:16:53;;;;;;;5.85;2.10;;;2.50;99.90;;;;;;5155789;27;20439;-48
2021/12/05 11:19:44;;;;;;;5.22;1.55;;;2.60;99.90;;;;;;5155909;27;20043;-49
2021/12/05 11:22:18;;;;;;;3.58;1.40;;;2.60;99.90;;;;;;5155716;27;20116;-49
2021/12/05 11:24:47;;;;;;;8.15;1.17;;;2.60;99.90;;;;;;5155672;27;20046;-48
2021/12/05 11:27:30;;;;;;;6.20;1.20;;;2.60;99.90;;;;;;5154201;27;20031;-48
2021/12/05 11:30:09;;;;;;;3.30;1.50;;;2.60;99.90;;;;;;5153183;27;20087;-49
2021/12/05 11:32:56;;;;;;;7.13;2.30;;;2.60;99.90;;;;;;5152724;27;20042;-50
2021/12/05 11:35:37;;;;;;;7.40;2.33;;;2.60;99.90;;;;;;5155285;27;20046;-48
2021/12/05 11:38:09;;;;;;;6.80;2.40;;;2.60;99.90;;;;;;5155424;27;20382;-49
2021/12/05 11:40:58;;;;;;;7.55;2.50;;;2.50;99.90;;;;;;5154820;27;20057;-49
2021/12/05 11:43:27;;;;;;;3.70;2.08;;;2.60;99.90;;;;;;5152747;27;20045;-49
2021/12/05 11:46:05;;;;;;;4.93;1.98;;;2.60;99.90;;;;;;5154105;27;20066;-53
2021/12/05 11:48:39;;;;;;;8.23;2.85;;;2.60;99.90;;;;;;5150910;27;20046;-51
2021/12/05 11:51:20;;;;;;;6.00;2.90;;;2.60;99.90;;;;;;5151769;27;20034;-49
2021/12/05 11:54:08;;;;;;;7.25;2.83;;;2.60;99.90;;;;;;5149754;27;20039;-53
2021/12/05 11:56:35;;;;;;;9.37;3.37;;;2.60;99.90;;;;;;5146648;27;20066;-52
2021/12/05 11:59:13;;;;;;;7.65;2.78;;;2.60;99.90;;;;;;5148306;27;20042;-51
2021/12/05 12:01:42;;;;;;;6.25;2.70;;;2.60;99.90;;;;;;5153351;27;20091;-52
2021/12/05 12:04:11;;;;;;;10.05;2.85;;;2.60;99.90;;;;;;5150984;27;20126;-52
2021/12/05 12:06:40;;;;;;;6.20;2.40;;;2.60;99.90;;;;;;5153054;27;20034;-50
2021/12/05 12:09:13;;;;;;;7.32;2.65;;;2.60;99.90;;;;;;5151041;27;20072;-51
2021/12/05 12:11:40;;;;;;;;;;;2.70;99.90;;;;;;5125276;27;20443;-52
2021/12/05 12:14:07;;;;;;;12.05;3.03;;;2.60;99.90;;;;;;5146224;27;19930;-51
2021/12/05 12:16:34;;;;;;;9.18;2.65;;;2.60;99.90;;;;;;5150286;27;20050;-50
2021/12/05 12:19:02;;;;;;;;;;;2.60;99.90;;;;;;5154215;27;20049;-51
2021/12/05 12:21:38;;;;;;;8.65;2.58;;;2.60;99.90;;;;;;5152721;27;20576;-50
2021/12/05 12:24:07;;;;;;;9.13;2.30;;;2.60;99.90;;;;;;5149686;27;20509;-54
2021/12/05 12:26:34;;;;;;;7.50;2.60;;;2.50;99.90;;;;;;5153287;27;20486;-51
2021/12/05 12:29:02;;;;;;;9.57;2.92;;;2.50;99.90;;;;;;5153782;27;20038;-51
2021/12/05 12:31:34;;;;;;;8.18;2.78;;;2.40;99.90;;;;;;5154059;27;20083;-48
2021/12/05 12:34:14;;;;;;;6.97;2.47;;;2.50;99.90;;;;;;5153553;27;20505;-52
2021/12/05 12:36:45;;;;;;;8.00;2.50;;;2.50;99.90;;;;;;5151112;27;20043;-50
2021/12/05 12:39:15;;;;;;;4.40;2.33;;;2.50;99.90;;;;;;5153923;27;20118;-47
2021/12/05 12:42:00;;;;;;;7.38;2.53;;;2.50;99.90;;;;;;5151508;27;20038;-44
2021/12/05 12:44:27;;;;;;;6.70;2.30;;;2.50;99.90;;;;;;5151632;27;20046;-47
2021/12/05 12:47:00;;;;;;;7.72;2.78;;;2.50;99.90;;;;;;5153094;27;20038;-48
2021/12/05 12:49:34;;;;;;;6.10;3.05;;;2.60;99.90;;;;;;5153686;27;20046;-49
2021/12/05 12:52:12;;;;;;;5.60;2.80;;;2.50;99.90;;;;;;5151196;27;20030;-47
2021/12/05 12:54:43;;;;;;;5.45;2.65;;;2.50;99.90;;;;;;5150645;27;20039;-47
2021/12/05 12:57:28;;;;;;;9.43;2.80;;;2.50;99.90;;;;;;5152952;27;20043;-46
2021/12/05 13:00:02;;;;;;;11.20;2.60;;;2.50;99.90;;;;;;5152893;27;20110;-46
2021/12/05 13:11:24;;;;;;;5.13;2.60;;;2.50;99.90;;;;;;5133017;27;20092;-46
2021/12/05 13:14:00;;;;;;;7.32;3.20;;;2.50;99.90;;;;;;5132955;27;20042;-59
2021/12/05 13:16:31;;;;;;;5.85;2.13;;;2.50;99.90;;;;;;5152596;27;20491;-54
2021/12/05 13:19:09;;;;;;;5.65;1.80;;;2.60;99.90;;;;;;5143131;27;20555;-60
2021/12/05 13:21:42;;;;;;;4.22;2.05;;;2.50;99.90;;;;;;5146300;27;20064;-58
2021/12/05 13:24:29;;;;;;;3.55;1.67;;;2.40;99.90;;;;;;5152708;27;20041;-53
2021/12/05 13:27:01;;;;;;;3.13;1.77;;;2.60;99.90;;;;;;5147583;27;20042;-58
2021/12/05 13:29:36;;;;;;;6.93;1.75;;;2.60;99.90;;;;;;5142542;27;20042;-58
2021/12/05 13:32:12;;;;;;;4.03;1.40;;;2.60;99.90;;;;;;5151416;27;20045;-53
2021/12/05 13:34:46;;;;;;;4.90;1.30;;;2.50;99.90;;;;;;5152305;27;20069;-55
2021/12/05 13:37:13;;;;;;;2.15;1.00;;;2.60;99.90;;;;;;5152652;27;20042;-57
2021/12/05 13:39:47;;;;;;;5.22;0.77;;;2.60;99.90;;;;;;5152338;27;20061;-53
2021/12/05 13:42:24;;;;;;;3.42;1.20;;;2.60;99.90;;;;;;5152865;27;20038;-58
2021/12/05 13:45:06;;;;;;;2.73;0.90;;;2.70;99.90;;;;;;5153089;27;20486;-52
2021/12/05 13:47:52;;;;;;;2.67;0.80;;;2.70;99.90;;;;;;5152711;27;20292;-55
2021/12/05 13:50:21;;;;;;;2.92;0.47;;;2.70;99.90;;;;;;5153325;27;20084;-59
2021/12/05 13:52:59;;;;;;;2.03;0.80;;;2.70;99.90;;;;;;5152943;27;20038;-59
2021/12/05 13:55:36;;;;;;;2.97;0.95;;;2.70;99.90;;;;;;5151653;27;20039;-61
2021/12/05 13:58:22;;;;;;;3.85;0.77;;;2.60;99.90;;;;;;5151478;27;20054;-61
2021/12/05 14:00:55;;;;;;;5.60;0.98;;;2.70;99.90;;;;;;5151254;27;20049;-62
2021/12/05 14:03:48;;;;;;;1.50;0.90;;;2.70;99.90;;;;;;5153310;27;20042;-60
2021/12/05 14:06:33;;;;;;;2.28;1.40;;;2.60;99.90;;;;;;5152700;27;20039;-61
2021/12/05 14:09:09;;;;;;;4.30;1.27;;;2.60;99.90;;;;;;5152652;27;20042;-59
2021/12/05 14:12:08;;;;;;;7.57;2.13;;;2.50;99.90;;;;;;5153008;27;20135;-61
2021/12/05 14:14:59;;;;;;;9.07;2.38;;;2.50;99.90;;;;;;5153041;27;20055;-61
2021/12/05 14:17:42;;;;;;;14.77;3.53;;;2.50;99.90;;;;;;5152484;27;20435;-61
2021/12/05 14:20:19;;;;;;;4.10;2.38;;;2.40;99.90;;;;;;5150961;27;20402;-59
2021/12/05 14:22:48;;;;;;;2.80;0.67;;;2.50;99.90;;;;;;5150701;27;20047;-61
2021/12/05 14:25:18;;;;;;;2.45;0.60;;;2.50;99.90;;;;;;5152345;27;20402;-59
2021/12/05 14:27:55;;;;;;;1.98;0.40;;;2.50;99.90;;;;;;5152986;27;20429;-59
2021/12/05 14:30:24;;;;;;;0.85;0.57;;;2.50;99.90;;;;;;5152868;27;20035;-56
2021/12/05 14:32:57;;;;;;;4.18;0.93;;;2.50;99.90;;;;;;5152719;27;20054;-61
2021/12/05 14:35:37;;;;;;;1.55;0.90;;;2.50;99.90;;;;;;5155745;27;20057;-61
2021/12/05 14:38:06;;;;;;;7.25;1.45;;;2.60;99.90;;;;;;5155468;27;20043;-62
2021/12/05 14:40:35;;;;;;;3.55;1.05;;;2.60;99.90;;;;;;5138015;27;20418;-62
2021/12/05 14:43:07;;;;;;;2.30;1.10;;;2.50;99.90;;;;;;5138201;27;20046;-62
2021/12/05 14:45:37;;;;;;;1.83;1.23;;;2.60;99.90;;;;;;5156204;27;20490;-62
2021/12/05 14:48:10;;;;;;;2.05;1.40;;;2.40;99.90;;;;;;5155750;27;20045;-62
2021/12/05 14:50:51;;;;;;;6.25;1.98;;;2.40;99.90;;;;;;5151899;27;20091;-62
2021/12/05 14:53:19;;;;;;;4.13;1.70;;;2.30;99.90;;;;;;5148678;27;20039;-62
2021/12/05 14:55:48;;;;;;;7.10;2.65;;;2.40;99.90;;;;;;5155700;27;20042;-62
2021/12/05 14:58:16;;;;;;;5.70;2.33;;;2.30;99.90;;;;;;5155961;27;20081;-62
2021/12/05 15:00:52;;;;;;;6.35;2.88;;;2.40;99.90;;;;;;5156099;27;20494;-63
2021/12/05 15:03:25;;;;;;;7.22;2.47;;;2.30;99.90;;;;;;5155930;27;20087;-62
2021/12/05 15:06:02;;;;;;;3.50;2.10;;;2.30;99.90;;;;;;5155446;27;20047;-62
2021/12/05 15:08:31;;;;;;;5.38;4.03;;;2.20;99.90;;;;;;5155883;27;20035;-63
2021/12/05 15:11:07;;;;;;;7.90;2.80;;;2.20;99.90;;;;;;5155754;27;20035;-62
2021/12/05 15:13:34;;;;;;;7.75;3.25;;;2.20;99.90;;;;;;5153897;27;20047;-60
2021/12/05 15:16:01;;;;;;;;;;;2.10;99.90;;;;;;5155849;27;20042;-59
2021/12/05 15:18:29;;;;;;;6.13;3.38;;;2.10;99.90;;;;;;5155484;27;19963;-60
2021/12/05 15:20:58;;;;;;;10.80;4.38;;;2.10;99.90;;;;;;5153373;27;20035;-60
2021/12/05 15:23:30;;;;;;;10.30;5.10;;;2.00;99.90;;;;;;5154756;27;20096;-60
2021/12/05 15:26:00;;;;;;;21.75;13.30;;;2.00;99.90;;;;;;5154925;27;20043;-60
2021/12/05 15:28:27;;;;;;;27.77;13.35;;;2.00;99.90;;;;;;5155511;27;20130;-59
2021/12/05 15:30:54;;;;;;;26.20;12.98;;;2.00;99.90;;;;;;5155675;27;20039;-60
2021/12/05 15:33:24;;;;;;;23.60;10.77;;;2.00;99.90;;;;;;5155517;27;20039;-60
2021/12/05 15:35:52;;;;;;;26.13;12.57;;;2.00;99.90;;;;;;5155015;27;20044;-61
2021/12/05 15:38:23;;;;;;;;;;;1.90;99.90;;;;;;5155930;27;20046;-61
2021/12/05 15:40:53;;;;;;;91.95;38.03;;;1.90;99.90;;;;;;5155454;27;19944;-61
2021/12/05 15:43:22;;;;;;;52.35;22.65;;;1.90;99.90;;;;;;5155511;27;20046;-61
2021/12/05 15:45:53;;;;;;;43.67;20.65;;;1.90;99.90;;;;;;5154362;27;20451;-61
2021/12/05 15:48:26;;;;;;;38.40;16.75;;;1.90;99.90;;;;;;5161216;27;20041;-61
2021/12/05 15:50:55;;;;;;;32.35;16.25;;;1.90;99.90;;;;;;5152070;27;20095;-62
2021/12/05 15:53:25;;;;;;;37.10;15.88;;;2.00;99.90;;;;;;5159572;27;20436;-61
2021/12/05 15:55:58;;;;;;;51.72;22.08;;;2.00;99.90;;;;;;5159785;27;20038;-60
2021/12/05 15:58:41;;;;;;;55.05;21.48;;;2.00;99.90;;;;;;5153745;27;20050;-60
2021/12/05 16:01:18;;;;;;;40.17;17.92;;;1.90;99.90;;;;;;5156283;27;20049;-61
2021/12/05 16:03:47;;;;;;;;;;;1.90;99.90;;;;;;5159628;27;20043;-61
2021/12/05 16:06:16;;;;;;;24.48;12.95;;;1.90;99.90;;;;;;5146566;27;19927;-60
2021/12/05 16:08:46;;;;;;;22.38;12.13;;;1.90;99.90;;;;;;5152748;27;20046;-59
2021/12/05 16:11:16;;;;;;;27.30;13.38;;;1.80;99.90;;;;;;5150777;27;20107;-58
2021/12/05 16:13:45;;;;;;;31.40;14.05;;;1.80;99.90;;;;;;5141152;27;20040;-56
2021/12/05 16:16:19;;;;;;;27.98;14.05;;;1.80;99.90;;;;;;5147172;27;20058;-60
2021/12/05 16:18:52;;;;;;;27.00;13.20;;;1.80;99.90;;;;;;5155661;27;20478;-60
2021/12/05 16:21:28;;;;;;;39.70;19.60;;;1.80;99.90;;;;;;5157731;27;20874;-60
2021/12/05 16:24:07;;;;;;;50.03;26.48;;;1.80;99.90;;;;;;5159744;27;20046;-60
2021/12/05 16:26:35;;;;;;;49.90;24.30;;;1.80;99.90;;;;;;5156121;27;20039;-61
2021/12/05 16:29:09;;;;;;;53.28;25.30;;;1.80;99.90;;;;;;5160251;27;20474;-58
2021/12/05 16:31:46;;;;;;;51.38;21.95;;;1.80;99.90;;;;;;5156679;27;20041;-53
2021/12/05 16:34:20;;;;;;;43.80;21.42;;;1.80;99.90;;;;;;5155874;27;20038;-62
2021/12/05 16:36:54;;;;;;;50.35;21.70;;;1.80;99.90;;;;;;5152094;27;20041;-61
2021/12/05 16:39:35;;;;;;;46.08;22.63;;;1.80;99.90;;;;;;5159299;27;20080;-62
2021/12/05 16:42:21;;;;;;;49.67;22.48;;;1.80;99.90;;;;;;5155195;27;20050;-61
2021/12/05 16:44:52;;;;;;;51.10;20.88;;;1.80;99.90;;;;;;5171457;27;20046;-62
2021/12/05 16:47:24;;;;;;;48.00;23.67;;;1.80;99.90;;;;;;5162829;27;20050;-62
2021/12/05 16:49:55;;;;;;;48.90;23.92;;;1.80;99.90;;;;;;5153120;27;20047;-62
2021/12/05 16:52:29;;;;;;;51.42;22.42;;;1.80;99.90;;;;;;5152437;27;20039;-61
2021/12/05 16:55:01;;;;;;;49.72;23.73;;;1.80;99.90;;;;;;5147563;27;20046;-61
2021/12/05 16:57:39;;;;;;;45.20;20.05;;;1.80;99.90;;;;;;5147739;27;20438;-61
2021/12/05 17:00:12;;;;;;;;;;;1.80;99.90;;;;;;5132650;27;20050;-61
2021/12/05 17:02:52;;;;;;;37.65;17.83;;;1.90;99.90;;;;;;5133124;27;20348;-61
2021/12/05 17:05:34;;;;;;;33.38;16.60;;;1.70;99.90;;;;;;5132760;27;20047;-63
2021/12/05 17:08:23;;;;;;;37.58;15.95;;;1.70;99.90;;;;;;5132935;27;20077;-64
2021/12/05 17:11:03;;;;;;;36.67;15.10;;;1.70;99.90;;;;;;5132895;27;20383;-63
2021/12/05 17:13:35;;;;;;;26.40;13.18;;;1.70;99.90;;;;;;5134942;27;20071;-64
2021/12/05 17:16:02;;;;;;;25.48;13.35;;;1.70;99.90;;;;;;5153122;27;20058;-64
2021/12/05 17:18:58;;;;;;;28.65;13.48;;;1.80;99.90;;;;;;5153347;27;20091;-63
2021/12/05 17:21:33;;;;;;;33.90;11.77;;;1.70;99.90;;;;;;5153483;27;20550;-64
2021/12/05 17:24:07;;;;;;;21.90;10.57;;;1.70;99.90;;;;;;5152720;27;20043;-64
2021/12/05 17:26:52;;;;;;;19.35;10.82;;;1.70;99.90;;;;;;5134124;27;20039;-64
2021/12/05 17:29:24;;;;;;;21.25;9.73;;;1.70;99.90;;;;;;5152560;27;20045;-64
2021/12/05 17:32:13;;;;;;;18.77;8.75;;;1.70;99.90;;;;;;5152834;27;20038;-64
2021/12/05 17:34:50;;;;;;;21.67;10.55;;;1.70;99.90;;;;;;5137684;22;20118;-61
2021/12/05 17:37:22;;;;;;;20.95;11.43;;;1.70;99.90;;;;;;5102792;28;20063;-61
2021/12/05 17:39:50;;;;;;;24.65;12.23;;;1.70;99.90;;;;;;5104638;28;20065;-61
2021/12/05 17:42:20;;;;;;;26.17;13.75;;;1.70;99.90;;;;;;5103439;28;20040;-61
2021/12/05 17:44:52;;;;;;;34.78;17.70;;;1.70;99.90;;;;;;5087192;28;20560;-61
2021/12/05 17:47:19;;;;;;;41.30;22.13;;;1.80;99.90;;;;;;5110663;28;20046;-61
2021/12/05 17:49:48;;;;;;;;;;;1.80;99.90;;;;;;5106623;28;20462;-61
2021/12/05 17:52:15;;;;;;;;;;;1.80;99.90;;;;;;5100450;28;20363;-61
2021/12/05 17:55:05;;;;;;;26.27;14.77;;;1.80;99.90;;;;;;5105211;28;20046;-61
2021/12/05 17:57:39;;;;;;;33.25;15.75;;;1.70;99.90;;;;;;5102845;28;20503;-62
2021/12/05 18:00:20;;;;;;;25.77;14.68;;;1.70;99.90;;;;;;5100529;28;20103;-61
2021/12/05 18:02:53;;;;;;;33.15;17.60;;;1.70;99.90;;;;;;5103015;28;20092;-61
2021/12/05 18:05:25;;;;;;;39.33;17.20;;;1.70;99.90;;;;;;5101020;28;20035;-61
2021/12/05 18:07:59;;;;;;;25.95;14.23;;;1.60;99.90;;;;;;5083033;28;20407;-61
2021/12/05 18:10:30;;;;;;;22.13;10.82;;;1.70;99.90;;;;;;5104510;28;20036;-61
2021/12/05 18:13:00;;;;;;;18.95;10.50;;;1.60;99.90;;;;;;5107542;28;20042;-60
2021/12/05 18:15:54;;;;;;;29.70;12.90;;;1.60;99.90;;;;;;5103343;28;20480;-62
2021/12/05 18:18:23;;;;;;;30.45;12.90;;;1.60;99.90;;;;;;5104595;28;20031;-60
2021/12/05 18:20:50;;;;;;;30.73;15.65;;;1.60;99.90;;;;;;5114753;28;20039;-60
2021/12/05 18:23:18;;;;;;;31.73;14.55;;;1.50;99.90;;;;;;5114808;28;20051;-60
2021/12/05 18:25:45;;;;;;;29.05;14.15;;;1.60;99.90;;;;;;5114259;28;20032;-60
2021/12/05 18:28:12;;;;;;;20.40;10.50;;;1.60;99.90;;;;;;5113118;28;20487;-60
2021/12/05 18:30:41;;;;;;;24.92;9.55;;;1.60;99.90;;;;;;5114626;28;20130;-60
2021/12/05 18:33:09;;;;;;;16.65;9.18;;;1.60;99.90;;;;;;5095499;28;20039;-60
2021/12/05 18:35:38;;;;;;;24.52;9.73;;;1.60;99.90;;;;;;5079234;28;20495;-60
2021/12/05 18:38:09;;;;;;;20.08;9.90;;;1.60;99.90;;;;;;5114357;28;20031;-60
2021/12/05 18:40:39;;;;;;;26.65;12.18;;;1.60;99.90;;;;;;5095748;28;20039;-60
2021/12/05 18:43:06;;;;;;;51.30;21.67;;;1.60;99.90;;;;;;5095456;28;20089;-60
2021/12/05 18:45:38;;;;;;;37.47;17.35;;;1.60;99.90;;;;;;5095806;28;20554;-60
2021/12/05 18:48:05;;;;;;;34.38;17.60;;;1.60;99.90;;;;;;5095893;28;20399;-60
2021/12/05 18:50:33;;;;;;;38.70;19.50;;;1.60;99.90;;;;;;5096048;28;20068;-60
2021/12/05 18:53:01;;;;;;;40.17;17.30;;;1.50;99.90;;;;;;5070670;28;20032;-60